sensor_id;sensor_type;location;lat;lon;timestamp;P1;durP1;ratioP1;P2;durP2;ratioP2
38717;SDS011;24468;52.128;9.278;2022-09-17T00:00:47;2.80;;;0.57;;
38717;SDS011;24468;52.128;9.278;2022-09-17T00:03:14;2.63;;;0.45;;
38717;SDS011;24468;52.128;9.278;2022-09-17T00:05:40;2.15;;;0.47;;
38717;SDS011;24468;52.128;9.278;2022-09-17T00:08:06;7.70;;;1.30;;
38717;SDS011;24468;52.128;9.278;2022-09-17T00:10:36;3.60;;;0.98;;
38717;SDS011;24468;52.128;9.278;2022-09-17T00:13:04;4.20;;;0.90;;
38717;SDS011;24468;52.128;9.278;2022-09-17T00:15:31;4.95;;;1.45;;
38717;SDS011;24468;52.128;9.278;2022-09-17T00:17:57;5.13;;;1.45;;
38717;SDS011;24468;52.128;9.278;2022-09-17T00:20:25;10.27;;;1.75;;
38717;SDS011;24468;52.128;9.278;2022-09-17T00:22:52;6.47;;;0.85;;
38717;SDS011;24468;52.128;9.278;2022-09-17T00:25:18;4.97;;;1.02;;
38717;SDS011;24468;52.128;9.278;2022-09-17T00:27:44;5.25;;;1.08;;
38717;SDS011;24468;52.128;9.278;2022-09-17T00:30:11;3.20;;;0.93;;
38717;SDS011;24468;52.128;9.278;2022-09-17T00:32:37;4.85;;;1.02;;
38717;SDS011;24468;52.128;9.278;2022-09-17T00:35:03;4.93;;;1.05;;
38717;SDS011;24468;52.128;9.278;2022-09-17T00:37:29;5.10;;;1.52;;
38717;SDS011;24468;52.128;9.278;2022-09-17T00:39:55;5.15;;;1.25;;
38717;SDS011;24468;52.128;9.278;2022-09-17T00:42:20;7.40;;;2.65;;
38717;SDS011;24468;52.128;9.278;2022-09-17T00:44:48;4.90;;;2.05;;
38717;SDS011;24468;52.128;9.278;2022-09-17T00:47:29;8.65;;;1.90;;
38717;SDS011;24468;52.128;9.278;2022-09-17T00:50:17;7.65;;;1.10;;
38717;SDS011;24468;52.128;9.278;2022-09-17T00:52:55;8.40;;;1.30;;
38717;SDS011;24468;52.128;9.278;2022-09-17T00:55:37;6.78;;;1.75;;
38717;SDS011;24468;52.128;9.278;2022-09-17T00:58:10;7.10;;;1.10;;
38717;SDS011;24468;52.128;9.278;2022-09-17T01:00:39;3.85;;;1.80;;
38717;SDS011;24468;52.128;9.278;2022-09-17T01:03:05;6.78;;;1.85;;
38717;SDS011;24468;52.128;9.278;2022-09-17T01:08:58;6.75;;;1.85;;
38717;SDS011;24468;52.128;9.278;2022-09-17T01:17:24;6.68;;;1.60;;
38717;SDS011;24468;52.128;9.278;2022-09-17T01:23:25;7.88;;;1.90;;
38717;SDS011;24468;52.128;9.278;2022-09-17T01:26:49;5.38;;;1.75;;
38717;SDS011;24468;52.128;9.278;2022-09-17T01:29:34;6.80;;;1.67;;
38717;SDS011;24468;52.128;9.278;2022-09-17T01:35:58;13.40;;;1.85;;
38717;SDS011;24468;52.128;9.278;2022-09-17T01:41:08;5.95;;;1.80;;
38717;SDS011;24468;52.128;9.278;2022-09-17T01:43:45;5.78;;;1.13;;
38717;SDS011;24468;52.128;9.278;2022-09-17T01:46:29;5.95;;;1.45;;
38717;SDS011;24468;52.128;9.278;2022-09-17T01:49:02;7.60;;;1.90;;
38717;SDS011;24468;52.128;9.278;2022-09-17T01:51:34;8.95;;;1.60;;
38717;SDS011;24468;52.128;9.278;2022-09-17T01:54:15;9.93;;;1.45;;
38717;SDS011;24468;52.128;9.278;2022-09-17T01:57:07;7.22;;;2.45;;
38717;SDS011;24468;52.128;9.278;2022-09-17T01:59:44;5.82;;;1.95;;
38717;SDS011;24468;52.128;9.278;2022-09-17T02:02:40;8.38;;;1.90;;
38717;SDS011;24468;52.128;9.278;2022-09-17T02:11:09;7.25;;;1.77;;
38717;SDS011;24468;52.128;9.278;2022-09-17T02:16:28;5.28;;;1.50;;
38717;SDS011;24468;52.128;9.278;2022-09-17T02:22:11;8.93;;;2.13;;
38717;SDS011;24468;52.128;9.278;2022-09-17T02:27:57;8.43;;;1.75;;
38717;SDS011;24468;52.128;9.278;2022-09-17T02:30:35;7.45;;;1.50;;
38717;SDS011;24468;52.128;9.278;2022-09-17T02:33:01;15.90;;;1.85;;
38717;SDS011;24468;52.128;9.278;2022-09-17T02:35:32;8.23;;;1.25;;
38717;SDS011;24468;52.128;9.278;2022-09-17T02:37:58;10.95;;;2.50;;
38717;SDS011;24468;52.128;9.278;2022-09-17T02:40:25;12.90;;;2.42;;
38717;SDS011;24468;52.128;9.278;2022-09-17T02:42:58;12.13;;;2.53;;
38717;SDS011;24468;52.128;9.278;2022-09-17T02:45:56;5.90;;;2.05;;
38717;SDS011;24468;52.128;9.278;2022-09-17T02:51:44;6.85;;;2.72;;
38717;SDS011;24468;52.128;9.278;2022-09-17T02:54:42;8.35;;;2.40;;
38717;SDS011;24468;52.128;9.278;2022-09-17T03:00:24;12.43;;;2.10;;
38717;SDS011;24468;52.128;9.278;2022-09-17T03:02:56;9.35;;;2.50;;
38717;SDS011;24468;52.128;9.278;2022-09-17T03:05:37;7.72;;;1.98;;
38717;SDS011;24468;52.128;9.278;2022-09-17T03:08:06;8.15;;;1.92;;
38717;SDS011;24468;52.128;9.278;2022-09-17T03:10:36;8.98;;;1.58;;
38717;SDS011;24468;52.128;9.278;2022-09-17T03:13:02;14.88;;;2.67;;
38717;SDS011;24468;52.128;9.278;2022-09-17T03:15:28;12.10;;;2.55;;
38717;SDS011;24468;52.128;9.278;2022-09-17T03:17:53;8.35;;;1.58;;
38717;SDS011;24468;52.128;9.278;2022-09-17T03:20:19;9.73;;;1.50;;
38717;SDS011;24468;52.128;9.278;2022-09-17T03:22:44;10.38;;;2.35;;
38717;SDS011;24468;52.128;9.278;2022-09-17T03:25:11;10.50;;;2.55;;
38717;SDS011;24468;52.128;9.278;2022-09-17T03:27:36;9.65;;;2.15;;
38717;SDS011;24468;52.128;9.278;2022-09-17T03:30:02;7.28;;;1.65;;
38717;SDS011;24468;52.128;9.278;2022-09-17T03:32:29;14.38;;;3.05;;
38717;SDS011;24468;52.128;9.278;2022-09-17T03:34:54;6.40;;;1.95;;
38717;SDS011;24468;52.128;9.278;2022-09-17T03:37:20;12.95;;;2.15;;
38717;SDS011;24468;52.128;9.278;2022-09-17T03:39:46;22.02;;;2.78;;
38717;SDS011;24468;52.128;9.278;2022-09-17T03:42:11;9.50;;;1.65;;
38717;SDS011;24468;52.128;9.278;2022-09-17T03:44:37;12.45;;;2.65;;
38717;SDS011;24468;52.128;9.278;2022-09-17T03:47:02;9.00;;;2.40;;
38717;SDS011;24468;52.128;9.278;2022-09-17T03:49:28;7.57;;;3.00;;
38717;SDS011;24468;52.128;9.278;2022-09-17T03:51:53;11.93;;;2.85;;
38717;SDS011;24468;52.128;9.278;2022-09-17T03:54:19;8.65;;;2.38;;
38717;SDS011;24468;52.128;9.278;2022-09-17T03:56:44;9.10;;;2.22;;
38717;SDS011;24468;52.128;9.278;2022-09-17T03:59:10;6.78;;;2.22;;
38717;SDS011;24468;52.128;9.278;2022-09-17T04:01:35;13.13;;;2.97;;
38717;SDS011;24468;52.128;9.278;2022-09-17T04:04:01;9.05;;;2.00;;
38717;SDS011;24468;52.128;9.278;2022-09-17T04:06:28;9.55;;;2.45;;
38717;SDS011;24468;52.128;9.278;2022-09-17T04:08:53;8.00;;;1.73;;
38717;SDS011;24468;52.128;9.278;2022-09-17T04:11:20;11.95;;;2.00;;
38717;SDS011;24468;52.128;9.278;2022-09-17T04:13:46;9.77;;;2.45;;
38717;SDS011;24468;52.128;9.278;2022-09-17T04:16:12;20.15;;;3.35;;
38717;SDS011;24468;52.128;9.278;2022-09-17T04:18:38;7.47;;;1.75;;
38717;SDS011;24468;52.128;9.278;2022-09-17T04:21:03;10.05;;;2.08;;
38717;SDS011;24468;52.128;9.278;2022-09-17T04:23:30;14.05;;;3.28;;
38717;SDS011;24468;52.128;9.278;2022-09-17T04:25:55;10.80;;;2.25;;
38717;SDS011;24468;52.128;9.278;2022-09-17T04:28:21;8.63;;;2.03;;
38717;SDS011;24468;52.128;9.278;2022-09-17T04:30:47;11.27;;;2.50;;
38717;SDS011;24468;52.128;9.278;2022-09-17T04:33:12;10.98;;;3.25;;
38717;SDS011;24468;52.128;9.278;2022-09-17T04:35:38;18.00;;;4.10;;
38717;SDS011;24468;52.128;9.278;2022-09-17T04:38:04;12.10;;;3.88;;
38717;SDS011;24468;52.128;9.278;2022-09-17T04:40:29;13.43;;;4.85;;
38717;SDS011;24468;52.128;9.278;2022-09-17T04:42:55;10.90;;;3.60;;
38717;SDS011;24468;52.128;9.278;2022-09-17T04:47:53;16.17;;;3.15;;
38717;SDS011;24468;52.128;9.278;2022-09-17T04:50:19;19.67;;;3.35;;
38717;SDS011;24468;52.128;9.278;2022-09-17T04:52:46;7.97;;;2.15;;
38717;SDS011;24468;52.128;9.278;2022-09-17T04:55:13;9.93;;;1.80;;
38717;SDS011;24468;52.128;9.278;2022-09-17T04:57:44;9.18;;;2.15;;
38717;SDS011;24468;52.128;9.278;2022-09-17T05:00:15;9.38;;;2.63;;
38717;SDS011;24468;52.128;9.278;2022-09-17T05:02:45;9.98;;;2.28;;
38717;SDS011;24468;52.128;9.278;2022-09-17T05:05:13;12.15;;;3.05;;
38717;SDS011;24468;52.128;9.278;2022-09-17T05:07:40;15.07;;;2.50;;
38717;SDS011;24468;52.128;9.278;2022-09-17T05:10:06;9.65;;;2.58;;
38717;SDS011;24468;52.128;9.278;2022-09-17T05:12:34;10.68;;;2.58;;
38717;SDS011;24468;52.128;9.278;2022-09-17T05:15:00;14.32;;;3.03;;
38717;SDS011;24468;52.128;9.278;2022-09-17T05:17:25;10.93;;;2.42;;
38717;SDS011;24468;52.128;9.278;2022-09-17T05:19:51;9.50;;;2.15;;
38717;SDS011;24468;52.128;9.278;2022-09-17T05:22:19;11.23;;;2.65;;
38717;SDS011;24468;52.128;9.278;2022-09-17T05:24:45;8.70;;;2.42;;
38717;SDS011;24468;52.128;9.278;2022-09-17T05:27:11;7.25;;;1.70;;
38717;SDS011;24468;52.128;9.278;2022-09-17T05:29:37;10.82;;;1.70;;
38717;SDS011;24468;52.128;9.278;2022-09-17T05:32:03;13.07;;;2.25;;
38717;SDS011;24468;52.128;9.278;2022-09-17T05:34:29;12.02;;;2.03;;
38717;SDS011;24468;52.128;9.278;2022-09-17T05:36:54;8.88;;;1.88;;
38717;SDS011;24468;52.128;9.278;2022-09-17T05:39:20;8.55;;;2.00;;
38717;SDS011;24468;52.128;9.278;2022-09-17T05:41:49;14.32;;;2.53;;
38717;SDS011;24468;52.128;9.278;2022-09-17T05:44:16;15.23;;;3.35;;
38717;SDS011;24468;52.128;9.278;2022-09-17T05:46:43;8.85;;;2.75;;
38717;SDS011;24468;52.128;9.278;2022-09-17T05:49:08;8.05;;;2.15;;
38717;SDS011;24468;52.128;9.278;2022-09-17T05:51:34;11.48;;;2.65;;
38717;SDS011;24468;52.128;9.278;2022-09-17T05:53:59;9.32;;;1.60;;
38717;SDS011;24468;52.128;9.278;2022-09-17T05:56:25;10.93;;;1.98;;
38717;SDS011;24468;52.128;9.278;2022-09-17T05:58:54;10.07;;;2.72;;
38717;SDS011;24468;52.128;9.278;2022-09-17T06:01:20;7.20;;;1.70;;
38717;SDS011;24468;52.128;9.278;2022-09-17T06:03:47;11.10;;;2.67;;
38717;SDS011;24468;52.128;9.278;2022-09-17T06:06:12;7.55;;;2.03;;
38717;SDS011;24468;52.128;9.278;2022-09-17T06:08:38;8.95;;;1.80;;
38717;SDS011;24468;52.128;9.278;2022-09-17T06:11:04;13.15;;;2.40;;
38717;SDS011;24468;52.128;9.278;2022-09-17T06:13:31;9.27;;;2.88;;
38717;SDS011;24468;52.128;9.278;2022-09-17T06:15:57;7.38;;;2.00;;
38717;SDS011;24468;52.128;9.278;2022-09-17T06:18:23;9.90;;;2.17;;
38717;SDS011;24468;52.128;9.278;2022-09-17T06:20:54;9.52;;;1.90;;
38717;SDS011;24468;52.128;9.278;2022-09-17T06:23:29;9.18;;;2.65;;
38717;SDS011;24468;52.128;9.278;2022-09-17T06:25:59;8.75;;;2.17;;
38717;SDS011;24468;52.128;9.278;2022-09-17T06:28:27;15.95;;;2.80;;
38717;SDS011;24468;52.128;9.278;2022-09-17T06:30:53;16.17;;;3.53;;
38717;SDS011;24468;52.128;9.278;2022-09-17T06:33:23;11.82;;;2.50;;
38717;SDS011;24468;52.128;9.278;2022-09-17T06:35:55;7.95;;;2.67;;
38717;SDS011;24468;52.128;9.278;2022-09-17T06:38:24;7.63;;;1.38;;
38717;SDS011;24468;52.128;9.278;2022-09-17T06:40:50;10.48;;;3.03;;
38717;SDS011;24468;52.128;9.278;2022-09-17T06:43:16;9.30;;;1.80;;
38717;SDS011;24468;52.128;9.278;2022-09-17T06:45:42;7.85;;;1.30;;
38717;SDS011;24468;52.128;9.278;2022-09-17T06:48:08;9.98;;;2.17;;
38717;SDS011;24468;52.128;9.278;2022-09-17T06:50:33;7.72;;;2.00;;
38717;SDS011;24468;52.128;9.278;2022-09-17T06:52:59;14.60;;;2.10;;
38717;SDS011;24468;52.128;9.278;2022-09-17T06:55:25;8.77;;;1.80;;
38717;SDS011;24468;52.128;9.278;2022-09-17T06:57:50;9.13;;;2.65;;
38717;SDS011;24468;52.128;9.278;2022-09-17T07:00:16;11.40;;;2.10;;
38717;SDS011;24468;52.128;9.278;2022-09-17T07:02:42;10.10;;;2.25;;
38717;SDS011;24468;52.128;9.278;2022-09-17T07:05:07;10.85;;;1.75;;
38717;SDS011;24468;52.128;9.278;2022-09-17T07:07:33;10.75;;;1.70;;
38717;SDS011;24468;52.128;9.278;2022-09-17T07:09:59;7.00;;;1.88;;
38717;SDS011;24468;52.128;9.278;2022-09-17T07:12:26;7.32;;;2.35;;
38717;SDS011;24468;52.128;9.278;2022-09-17T07:14:52;9.75;;;2.38;;
38717;SDS011;24468;52.128;9.278;2022-09-17T07:17:17;10.00;;;2.08;;
38717;SDS011;24468;52.128;9.278;2022-09-17T07:19:43;11.35;;;1.65;;
38717;SDS011;24468;52.128;9.278;2022-09-17T07:22:08;6.85;;;1.63;;
38717;SDS011;24468;52.128;9.278;2022-09-17T07:24:34;8.02;;;1.63;;
38717;SDS011;24468;52.128;9.278;2022-09-17T07:27:00;7.40;;;1.83;;
38717;SDS011;24468;52.128;9.278;2022-09-17T07:29:25;14.05;;;2.30;;
38717;SDS011;24468;52.128;9.278;2022-09-17T07:31:52;12.18;;;2.85;;
38717;SDS011;24468;52.128;9.278;2022-09-17T07:34:18;7.70;;;2.00;;
38717;SDS011;24468;52.128;9.278;2022-09-17T07:36:44;12.00;;;1.95;;
38717;SDS011;24468;52.128;9.278;2022-09-17T07:39:10;9.85;;;1.85;;
38717;SDS011;24468;52.128;9.278;2022-09-17T07:41:37;10.57;;;2.22;;
38717;SDS011;24468;52.128;9.278;2022-09-17T07:44:03;8.77;;;1.70;;
38717;SDS011;24468;52.128;9.278;2022-09-17T07:46:30;8.40;;;1.98;;
38717;SDS011;24468;52.128;9.278;2022-09-17T07:48:56;12.57;;;1.98;;
38717;SDS011;24468;52.128;9.278;2022-09-17T07:51:22;6.63;;;1.90;;
38717;SDS011;24468;52.128;9.278;2022-09-17T07:53:54;9.45;;;1.90;;
38717;SDS011;24468;52.128;9.278;2022-09-17T07:56:22;10.35;;;2.65;;
38717;SDS011;24468;52.128;9.278;2022-09-17T07:58:49;7.13;;;2.08;;
38717;SDS011;24468;52.128;9.278;2022-09-17T08:01:15;9.45;;;2.97;;
38717;SDS011;24468;52.128;9.278;2022-09-17T08:03:42;11.50;;;2.03;;
38717;SDS011;24468;52.128;9.278;2022-09-17T08:06:13;8.90;;;1.98;;
38717;SDS011;24468;52.128;9.278;2022-09-17T08:08:41;5.28;;;1.15;;
38717;SDS011;24468;52.128;9.278;2022-09-17T08:11:17;8.32;;;2.17;;
38717;SDS011;24468;52.128;9.278;2022-09-17T08:13:51;7.38;;;1.42;;
38717;SDS011;24468;52.128;9.278;2022-09-17T08:16:18;12.30;;;3.30;;
38717;SDS011;24468;52.128;9.278;2022-09-17T08:18:45;6.75;;;2.13;;
38717;SDS011;24468;52.128;9.278;2022-09-17T08:21:13;11.27;;;1.80;;
38717;SDS011;24468;52.128;9.278;2022-09-17T08:23:41;10.40;;;2.38;;
38717;SDS011;24468;52.128;9.278;2022-09-17T08:26:15;8.30;;;1.88;;
38717;SDS011;24468;52.128;9.278;2022-09-17T08:28:43;8.98;;;2.70;;
38717;SDS011;24468;52.128;9.278;2022-09-17T08:31:11;7.53;;;1.40;;
38717;SDS011;24468;52.128;9.278;2022-09-17T08:33:38;11.13;;;2.20;;
38717;SDS011;24468;52.128;9.278;2022-09-17T08:36:06;8.98;;;2.28;;
38717;SDS011;24468;52.128;9.278;2022-09-17T08:38:35;11.82;;;2.17;;
38717;SDS011;24468;52.128;9.278;2022-09-17T08:43:57;11.65;;;2.05;;
38717;SDS011;24468;52.128;9.278;2022-09-17T08:46:48;10.95;;;2.70;;
38717;SDS011;24468;52.128;9.278;2022-09-17T08:55:20;7.57;;;1.58;;
38717;SDS011;24468;52.128;9.278;2022-09-17T09:01:07;5.53;;;1.85;;
38717;SDS011;24468;52.128;9.278;2022-09-17T09:04:28;7.65;;;2.22;;
38717;SDS011;24468;52.128;9.278;2022-09-17T09:07:22;5.15;;;1.83;;
38717;SDS011;24468;52.128;9.278;2022-09-17T09:10:39;8.02;;;1.48;;
38717;SDS011;24468;52.128;9.278;2022-09-17T09:12:50;10.90;;;1.92;;
38717;SDS011;24468;52.128;9.278;2022-09-17T09:15:20;7.88;;;1.30;;
38717;SDS011;24468;52.128;9.278;2022-09-17T09:18:17;11.35;;;2.25;;
38717;SDS011;24468;52.128;9.278;2022-09-17T09:21:35;7.82;;;1.73;;
38717;SDS011;24468;52.128;9.278;2022-09-17T09:23:53;10.27;;;2.05;;
38717;SDS011;24468;52.128;9.278;2022-09-17T09:26:23;6.32;;;1.83;;
38717;SDS011;24468;52.128;9.278;2022-09-17T09:35:06;8.98;;;1.48;;
38717;SDS011;24468;52.128;9.278;2022-09-17T09:40:46;12.45;;;2.40;;
38717;SDS011;24468;52.128;9.278;2022-09-17T09:43:40;8.38;;;1.70;;
38717;SDS011;24468;52.128;9.278;2022-09-17T10:03:42;11.27;;;2.10;;
38717;SDS011;24468;52.128;9.278;2022-09-17T10:06:10;10.52;;;1.90;;
38717;SDS011;24468;52.128;9.278;2022-09-17T10:08:41;7.15;;;1.83;;
38717;SDS011;24468;52.128;9.278;2022-09-17T10:11:30;5.35;;;1.30;;
38717;SDS011;24468;52.128;9.278;2022-09-17T10:17:19;8.27;;;1.88;;
38717;SDS011;24468;52.128;9.278;2022-09-17T10:22:31;5.10;;;1.30;;
38717;SDS011;24468;52.128;9.278;2022-09-17T10:24:59;6.10;;;1.65;;
38717;SDS011;24468;52.128;9.278;2022-09-17T10:27:26;7.15;;;1.50;;
38717;SDS011;24468;52.128;9.278;2022-09-17T10:32:38;8.93;;;1.83;;
38717;SDS011;24468;52.128;9.278;2022-09-17T10:35:05;6.53;;;1.70;;
38717;SDS011;24468;52.128;9.278;2022-09-17T10:37:51;4.35;;;1.17;;
38717;SDS011;24468;52.128;9.278;2022-09-17T10:42:44;5.95;;;1.73;;
38717;SDS011;24468;52.128;9.278;2022-09-17T10:45:26;7.57;;;1.50;;
38717;SDS011;24468;52.128;9.278;2022-09-17T10:47:54;3.00;;;0.80;;
38717;SDS011;24468;52.128;9.278;2022-09-17T10:50:25;3.60;;;1.45;;
38717;SDS011;24468;52.128;9.278;2022-09-17T10:52:56;4.88;;;1.65;;
38717;SDS011;24468;52.128;9.278;2022-09-17T10:55:32;4.45;;;1.13;;
38717;SDS011;24468;52.128;9.278;2022-09-17T10:58:17;6.13;;;1.30;;
38717;SDS011;24468;52.128;9.278;2022-09-17T11:01:13;7.65;;;1.92;;
38717;SDS011;24468;52.128;9.278;2022-09-17T11:03:47;7.65;;;1.77;;
38717;SDS011;24468;52.128;9.278;2022-09-17T11:09:28;6.65;;;1.67;;
38717;SDS011;24468;52.128;9.278;2022-09-17T11:12:28;5.50;;;1.20;;
38717;SDS011;24468;52.128;9.278;2022-09-17T11:38:17;3.83;;;1.10;;
38717;SDS011;24468;52.128;9.278;2022-09-17T11:40:57;6.43;;;1.38;;
38717;SDS011;24468;52.128;9.278;2022-09-17T11:43:31;2.85;;;0.80;;
38717;SDS011;24468;52.128;9.278;2022-09-17T11:49:03;8.65;;;1.13;;
38717;SDS011;24468;52.128;9.278;2022-09-17T11:51:57;4.05;;;1.00;;
38717;SDS011;24468;52.128;9.278;2022-09-17T11:54:37;3.70;;;0.80;;
38717;SDS011;24468;52.128;9.278;2022-09-17T11:57:43;3.50;;;0.68;;
38717;SDS011;24468;52.128;9.278;2022-09-17T12:06:08;4.95;;;1.02;;
38717;SDS011;24468;52.128;9.278;2022-09-17T12:08:49;4.10;;;0.93;;
38717;SDS011;24468;52.128;9.278;2022-09-17T12:11:37;4.78;;;0.68;;
38717;SDS011;24468;52.128;9.278;2022-09-17T12:14:17;5.18;;;1.73;;
38717;SDS011;24468;52.128;9.278;2022-09-17T12:16:49;6.95;;;1.10;;
38717;SDS011;24468;52.128;9.278;2022-09-17T12:19:35;7.15;;;0.82;;
38717;SDS011;24468;52.128;9.278;2022-09-17T12:22:16;3.17;;;0.98;;
38717;SDS011;24468;52.128;9.278;2022-09-17T12:24:51;4.78;;;1.00;;
38717;SDS011;24468;52.128;9.278;2022-09-17T12:27:20;10.73;;;1.00;;
38717;SDS011;24468;52.128;9.278;2022-09-17T12:55:32;3.65;;;0.75;;
38717;SDS011;24468;52.128;9.278;2022-09-17T12:58:38;4.90;;;0.70;;
38717;SDS011;24468;52.128;9.278;2022-09-17T13:04:27;11.20;;;1.40;;
38717;SDS011;24468;52.128;9.278;2022-09-17T13:10:22;5.07;;;1.00;;
38717;SDS011;24468;52.128;9.278;2022-09-17T13:13:10;2.33;;;0.70;;
38717;SDS011;24468;52.128;9.278;2022-09-17T13:22:00;7.57;;;1.02;;
38717;SDS011;24468;52.128;9.278;2022-09-17T13:24:37;7.45;;;1.30;;
38717;SDS011;24468;52.128;9.278;2022-09-17T13:27:04;6.22;;;0.88;;
38717;SDS011;24468;52.128;9.278;2022-09-17T13:32:56;6.30;;;1.15;;
38717;SDS011;24468;52.128;9.278;2022-09-17T13:34:56;3.97;;;0.90;;
38717;SDS011;24468;52.128;9.278;2022-09-17T13:37:34;8.10;;;1.10;;
38717;SDS011;24468;52.128;9.278;2022-09-17T13:40:18;6.43;;;1.40;;
38717;SDS011;24468;52.128;9.278;2022-09-17T13:42:47;3.60;;;1.02;;
38717;SDS011;24468;52.128;9.278;2022-09-17T13:45:19;4.90;;;1.48;;
38717;SDS011;24468;52.128;9.278;2022-09-17T13:50:35;6.07;;;1.05;;
38717;SDS011;24468;52.128;9.278;2022-09-17T13:55:41;5.68;;;1.40;;
38717;SDS011;24468;52.128;9.278;2022-09-17T14:13:46;1.67;;;0.30;;
38717;SDS011;24468;52.128;9.278;2022-09-17T14:22:15;2.30;;;0.55;;
38717;SDS011;24468;52.128;9.278;2022-09-17T14:24:52;3.38;;;0.30;;
38717;SDS011;24468;52.128;9.278;2022-09-17T14:30:30;2.38;;;0.50;;
38717;SDS011;24468;52.128;9.278;2022-09-17T14:35:47;6.10;;;1.92;;
38717;SDS011;24468;52.128;9.278;2022-09-17T14:38:19;2.58;;;0.75;;
38717;SDS011;24468;52.128;9.278;2022-09-17T14:40:59;4.60;;;0.70;;
38717;SDS011;24468;52.128;9.278;2022-09-17T14:46:05;6.18;;;0.63;;
38717;SDS011;24468;52.128;9.278;2022-09-17T14:48:34;7.00;;;0.95;;
38717;SDS011;24468;52.128;9.278;2022-09-17T14:53:41;3.13;;;0.70;;
38717;SDS011;24468;52.128;9.278;2022-09-17T14:56:09;3.50;;;1.10;;
38717;SDS011;24468;52.128;9.278;2022-09-17T14:58:45;2.90;;;0.88;;
38717;SDS011;24468;52.128;9.278;2022-09-17T15:01:29;5.18;;;1.52;;
38717;SDS011;24468;52.128;9.278;2022-09-17T15:06:52;2.42;;;0.93;;
38717;SDS011;24468;52.128;9.278;2022-09-17T15:09:31;4.45;;;1.33;;
38717;SDS011;24468;52.128;9.278;2022-09-17T15:11:57;6.45;;;1.23;;
38717;SDS011;24468;52.128;9.278;2022-09-17T15:14:28;5.55;;;1.15;;
38717;SDS011;24468;52.128;9.278;2022-09-17T15:16:57;4.82;;;0.98;;
38717;SDS011;24468;52.128;9.278;2022-09-17T15:19:26;6.95;;;1.25;;
38717;SDS011;24468;52.128;9.278;2022-09-17T15:22:16;7.78;;;1.65;;
38717;SDS011;24468;52.128;9.278;2022-09-17T15:27:33;5.53;;;1.27;;
38717;SDS011;24468;52.128;9.278;2022-09-17T15:32:46;3.25;;;0.60;;
38717;SDS011;24468;52.128;9.278;2022-09-17T15:35:22;3.28;;;0.70;;
38717;SDS011;24468;52.128;9.278;2022-09-17T15:37:58;5.72;;;1.83;;
38717;SDS011;24468;52.128;9.278;2022-09-17T15:45:41;2.30;;;0.80;;
38717;SDS011;24468;52.128;9.278;2022-09-17T15:50:52;1.48;;;0.20;;
38717;SDS011;24468;52.128;9.278;2022-09-17T15:53:24;2.13;;;0.22;;
38717;SDS011;24468;52.128;9.278;2022-09-17T15:56:07;7.78;;;1.08;;
38717;SDS011;24468;52.128;9.278;2022-09-17T16:08:46;5.10;;;1.20;;
38717;SDS011;24468;52.128;9.278;2022-09-17T16:11:14;4.07;;;1.10;;
38717;SDS011;24468;52.128;9.278;2022-09-17T16:13:44;5.47;;;0.70;;
38717;SDS011;24468;52.128;9.278;2022-09-17T16:16:29;3.63;;;1.00;;
38717;SDS011;24468;52.128;9.278;2022-09-17T16:18:58;4.13;;;0.65;;
38717;SDS011;24468;52.128;9.278;2022-09-17T16:21:24;2.30;;;0.68;;
38717;SDS011;24468;52.128;9.278;2022-09-17T16:23:50;2.95;;;0.43;;
38717;SDS011;24468;52.128;9.278;2022-09-17T16:26:18;4.43;;;1.00;;
38717;SDS011;24468;52.128;9.278;2022-09-17T16:29:01;3.20;;;0.60;;
38717;SDS011;24468;52.128;9.278;2022-09-17T16:31:30;3.70;;;0.75;;
38717;SDS011;24468;52.128;9.278;2022-09-17T16:33:57;9.02;;;1.02;;
38717;SDS011;24468;52.128;9.278;2022-09-17T16:36:22;2.85;;;0.40;;
38717;SDS011;24468;52.128;9.278;2022-09-17T16:38:48;5.43;;;0.90;;
38717;SDS011;24468;52.128;9.278;2022-09-17T16:41:13;6.38;;;1.23;;
38717;SDS011;24468;52.128;9.278;2022-09-17T16:43:39;2.15;;;1.13;;
38717;SDS011;24468;52.128;9.278;2022-09-17T16:46:05;10.30;;;1.95;;
38717;SDS011;24468;52.128;9.278;2022-09-17T16:48:34;3.08;;;1.55;;
38717;SDS011;24468;52.128;9.278;2022-09-17T16:51:05;3.90;;;1.20;;
38717;SDS011;24468;52.128;9.278;2022-09-17T16:53:32;5.25;;;1.08;;
38717;SDS011;24468;52.128;9.278;2022-09-17T16:55:58;4.72;;;1.73;;
38717;SDS011;24468;52.128;9.278;2022-09-17T16:58:24;5.40;;;1.15;;
38717;SDS011;24468;52.128;9.278;2022-09-17T17:00:50;6.20;;;1.08;;
38717;SDS011;24468;52.128;9.278;2022-09-17T17:03:15;4.50;;;1.40;;
38717;SDS011;24468;52.128;9.278;2022-09-17T17:05:41;11.35;;;1.20;;
38717;SDS011;24468;52.128;9.278;2022-09-17T17:08:07;4.47;;;1.83;;
38717;SDS011;24468;52.128;9.278;2022-09-17T17:10:34;5.78;;;1.30;;
38717;SDS011;24468;52.128;9.278;2022-09-17T17:13:02;8.73;;;1.83;;
38717;SDS011;24468;52.128;9.278;2022-09-17T17:15:28;8.68;;;1.50;;
38717;SDS011;24468;52.128;9.278;2022-09-17T17:17:54;6.63;;;1.08;;
38717;SDS011;24468;52.128;9.278;2022-09-17T17:20:20;8.98;;;1.33;;
38717;SDS011;24468;52.128;9.278;2022-09-17T17:22:46;8.38;;;1.98;;
38717;SDS011;24468;52.128;9.278;2022-09-17T17:25:12;6.43;;;1.80;;
38717;SDS011;24468;52.128;9.278;2022-09-17T17:27:38;5.25;;;2.20;;
38717;SDS011;24468;52.128;9.278;2022-09-17T17:30:05;11.52;;;2.28;;
38717;SDS011;24468;52.128;9.278;2022-09-17T17:32:33;8.88;;;2.05;;
38717;SDS011;24468;52.128;9.278;2022-09-17T17:35:01;10.02;;;2.20;;
38717;SDS011;24468;52.128;9.278;2022-09-17T17:37:28;7.18;;;1.80;;
38717;SDS011;24468;52.128;9.278;2022-09-17T17:39:53;10.75;;;3.75;;
38717;SDS011;24468;52.128;9.278;2022-09-17T17:42:19;14.80;;;2.20;;
38717;SDS011;24468;52.128;9.278;2022-09-17T17:44:45;12.00;;;2.35;;
38717;SDS011;24468;52.128;9.278;2022-09-17T17:47:11;10.05;;;2.03;;
38717;SDS011;24468;52.128;9.278;2022-09-17T17:49:38;9.55;;;2.03;;
38717;SDS011;24468;52.128;9.278;2022-09-17T17:52:03;8.10;;;2.33;;
38717;SDS011;24468;52.128;9.278;2022-09-17T17:54:29;9.15;;;2.75;;
38717;SDS011;24468;52.128;9.278;2022-09-17T17:56:55;10.27;;;1.50;;
38717;SDS011;24468;52.128;9.278;2022-09-17T17:59:21;10.57;;;1.63;;
38717;SDS011;24468;52.128;9.278;2022-09-17T18:01:47;7.70;;;2.03;;
38717;SDS011;24468;52.128;9.278;2022-09-17T18:04:12;15.25;;;1.30;;
38717;SDS011;24468;52.128;9.278;2022-09-17T18:06:38;11.38;;;2.40;;
38717;SDS011;24468;52.128;9.278;2022-09-17T18:09:03;6.85;;;1.58;;
38717;SDS011;24468;52.128;9.278;2022-09-17T18:11:30;5.70;;;1.52;;
38717;SDS011;24468;52.128;9.278;2022-09-17T18:13:58;6.60;;;1.90;;
38717;SDS011;24468;52.128;9.278;2022-09-17T18:16:27;12.80;;;2.00;;
38717;SDS011;24468;52.128;9.278;2022-09-17T18:18:54;7.85;;;1.55;;
38717;SDS011;24468;52.128;9.278;2022-09-17T18:21:22;5.30;;;1.63;;
38717;SDS011;24468;52.128;9.278;2022-09-17T18:23:49;4.47;;;1.48;;
38717;SDS011;24468;52.128;9.278;2022-09-17T18:26:16;12.10;;;1.65;;
38717;SDS011;24468;52.128;9.278;2022-09-17T18:28:44;9.65;;;2.38;;
38717;SDS011;24468;52.128;9.278;2022-09-17T18:31:19;14.13;;;1.90;;
38717;SDS011;24468;52.128;9.278;2022-09-17T18:36:30;11.00;;;2.03;;
38717;SDS011;24468;52.128;9.278;2022-09-17T18:38:59;11.52;;;2.75;;
38717;SDS011;24468;52.128;9.278;2022-09-17T18:41:28;8.43;;;1.73;;
38717;SDS011;24468;52.128;9.278;2022-09-17T18:43:55;7.57;;;2.33;;
38717;SDS011;24468;52.128;9.278;2022-09-17T18:46:21;10.25;;;2.17;;
38717;SDS011;24468;52.128;9.278;2022-09-17T18:49:05;9.63;;;1.85;;
38717;SDS011;24468;52.128;9.278;2022-09-17T18:51:31;11.43;;;1.83;;
38717;SDS011;24468;52.128;9.278;2022-09-17T18:53:57;5.97;;;1.48;;
38717;SDS011;24468;52.128;9.278;2022-09-17T18:56:24;7.20;;;1.83;;
38717;SDS011;24468;52.128;9.278;2022-09-17T18:58:53;6.63;;;1.50;;
38717;SDS011;24468;52.128;9.278;2022-09-17T19:01:22;16.55;;;2.22;;